sensor_id;sensor_type;location;lat;lon;timestamp;P1;durP1;ratioP1;P2;durP2;ratioP2
60722;SDS011;46574;52.818;6.516;2022-10-15T00:00:27;32.25;;;22.85;;
60722;SDS011;46574;52.818;6.516;2022-10-15T00:02:52;32.28;;;23.40;;
60722;SDS011;46574;52.818;6.516;2022-10-15T00:05:18;41.67;;;29.13;;
60722;SDS011;46574;52.818;6.516;2022-10-15T00:07:44;36.58;;;25.95;;
60722;SDS011;46574;52.818;6.516;2022-10-15T00:10:10;42.90;;;29.58;;
60722;SDS011;46574;52.818;6.516;2022-10-15T00:12:36;42.67;;;30.10;;
60722;SDS011;46574;52.818;6.516;2022-10-15T00:15:02;43.15;;;28.77;;
60722;SDS011;46574;52.818;6.516;2022-10-15T00:17:28;37.45;;;26.23;;
60722;SDS011;46574;52.818;6.516;2022-10-15T00:19:54;36.22;;;25.35;;
60722;SDS011;46574;52.818;6.516;2022-10-15T00:22:20;34.55;;;24.52;;
60722;SDS011;46574;52.818;6.516;2022-10-15T00:24:45;39.55;;;27.67;;
60722;SDS011;46574;52.818;6.516;2022-10-15T00:27:11;38.30;;;27.23;;
60722;SDS011;46574;52.818;6.516;2022-10-15T00:29:36;39.33;;;27.45;;
60722;SDS011;46574;52.818;6.516;2022-10-15T00:32:02;39.63;;;27.80;;
60722;SDS011;46574;52.818;6.516;2022-10-15T00:34:28;41.53;;;29.35;;
60722;SDS011;46574;52.818;6.516;2022-10-15T00:36:53;46.90;;;31.25;;
60722;SDS011;46574;52.818;6.516;2022-10-15T00:39:19;43.15;;;31.02;;
60722;SDS011;46574;52.818;6.516;2022-10-15T00:41:45;46.17;;;31.83;;
60722;SDS011;46574;52.818;6.516;2022-10-15T00:46:45;36.58;;;27.33;;
60722;SDS011;46574;52.818;6.516;2022-10-15T00:49:18;36.60;;;27.45;;
60722;SDS011;46574;52.818;6.516;2022-10-15T00:51:52;48.88;;;33.97;;
60722;SDS011;46574;52.818;6.516;2022-10-15T00:54:24;48.33;;;34.00;;
60722;SDS011;46574;52.818;6.516;2022-10-15T00:56:51;38.53;;;29.08;;
60722;SDS011;46574;52.818;6.516;2022-10-15T00:59:18;48.78;;;34.13;;
60722;SDS011;46574;52.818;6.516;2022-10-15T01:01:47;48.53;;;34.30;;
60722;SDS011;46574;52.818;6.516;2022-10-15T01:04:13;46.83;;;31.95;;
60722;SDS011;46574;52.818;6.516;2022-10-15T01:06:39;39.40;;;29.58;;
60722;SDS011;46574;52.818;6.516;2022-10-15T01:09:05;45.05;;;32.22;;
60722;SDS011;46574;52.818;6.516;2022-10-15T01:11:44;40.83;;;29.38;;
60722;SDS011;46574;52.818;6.516;2022-10-15T01:17:02;45.42;;;31.95;;
60722;SDS011;46574;52.818;6.516;2022-10-15T01:27:54;45.33;;;32.88;;
60722;SDS011;46574;52.818;6.516;2022-10-15T01:30:28;48.58;;;33.28;;
60722;SDS011;46574;52.818;6.516;2022-10-15T01:33:03;43.63;;;30.98;;
60722;SDS011;46574;52.818;6.516;2022-10-15T01:36:05;48.97;;;32.60;;
60722;SDS011;46574;52.818;6.516;2022-10-15T01:41:38;47.65;;;33.47;;
60722;SDS011;46574;52.818;6.516;2022-10-15T01:44:12;53.40;;;34.60;;
60722;SDS011;46574;52.818;6.516;2022-10-15T01:46:48;41.70;;;30.48;;
60722;SDS011;46574;52.818;6.516;2022-10-15T01:49:20;40.28;;;29.75;;
60722;SDS011;46574;52.818;6.516;2022-10-15T01:51:50;45.85;;;32.08;;
60722;SDS011;46574;52.818;6.516;2022-10-15T01:54:19;45.10;;;31.58;;
60722;SDS011;46574;52.818;6.516;2022-10-15T01:56:48;42.78;;;30.80;;
60722;SDS011;46574;52.818;6.516;2022-10-15T01:59:17;44.42;;;30.63;;
60722;SDS011;46574;52.818;6.516;2022-10-15T02:01:46;39.05;;;28.38;;
60722;SDS011;46574;52.818;6.516;2022-10-15T02:04:19;36.05;;;25.98;;
60722;SDS011;46574;52.818;6.516;2022-10-15T02:06:48;44.60;;;32.00;;
60722;SDS011;46574;52.818;6.516;2022-10-15T02:15:17;38.60;;;27.52;;
60722;SDS011;46574;52.818;6.516;2022-10-15T02:18:01;40.97;;;27.38;;
60722;SDS011;46574;52.818;6.516;2022-10-15T02:23:20;39.55;;;27.35;;
60722;SDS011;46574;52.818;6.516;2022-10-15T02:25:50;35.70;;;24.83;;
60722;SDS011;46574;52.818;6.516;2022-10-15T02:28:17;35.58;;;24.65;;
60722;SDS011;46574;52.818;6.516;2022-10-15T02:30:44;45.47;;;29.85;;
60722;SDS011;46574;52.818;6.516;2022-10-15T02:33:13;41.40;;;27.08;;
60722;SDS011;46574;52.818;6.516;2022-10-15T02:35:42;36.00;;;25.63;;
60722;SDS011;46574;52.818;6.516;2022-10-15T02:38:09;40.75;;;28.30;;
60722;SDS011;46574;52.818;6.516;2022-10-15T02:43:05;43.35;;;28.95;;
60722;SDS011;46574;52.818;6.516;2022-10-15T02:45:34;41.83;;;28.00;;
60722;SDS011;46574;52.818;6.516;2022-10-15T02:48:02;41.28;;;28.75;;
60722;SDS011;46574;52.818;6.516;2022-10-15T02:50:28;39.20;;;26.38;;
60722;SDS011;46574;52.818;6.516;2022-10-15T02:52:54;37.53;;;25.48;;
60722;SDS011;46574;52.818;6.516;2022-10-15T02:55:19;36.80;;;25.42;;
60722;SDS011;46574;52.818;6.516;2022-10-15T02:57:45;40.70;;;27.80;;
60722;SDS011;46574;52.818;6.516;2022-10-15T03:00:11;31.75;;;22.13;;
60722;SDS011;46574;52.818;6.516;2022-10-15T03:02:37;42.20;;;27.58;;
60722;SDS011;46574;52.818;6.516;2022-10-15T03:05:02;41.65;;;26.52;;
60722;SDS011;46574;52.818;6.516;2022-10-15T03:07:28;38.80;;;24.88;;
60722;SDS011;46574;52.818;6.516;2022-10-15T03:09:54;34.10;;;23.45;;
60722;SDS011;46574;52.818;6.516;2022-10-15T03:12:20;36.63;;;25.17;;
60722;SDS011;46574;52.818;6.516;2022-10-15T03:14:48;38.50;;;27.40;;
60722;SDS011;46574;52.818;6.516;2022-10-15T03:17:14;39.70;;;26.65;;
60722;SDS011;46574;52.818;6.516;2022-10-15T03:19:39;34.83;;;25.45;;
60722;SDS011;46574;52.818;6.516;2022-10-15T03:22:05;38.65;;;24.83;;
60722;SDS011;46574;52.818;6.516;2022-10-15T03:24:31;40.80;;;27.27;;
60722;SDS011;46574;52.818;6.516;2022-10-15T03:26:56;44.60;;;27.05;;
60722;SDS011;46574;52.818;6.516;2022-10-15T03:29:22;35.35;;;24.27;;
60722;SDS011;46574;52.818;6.516;2022-10-15T03:31:48;36.35;;;24.55;;
60722;SDS011;46574;52.818;6.516;2022-10-15T03:34:13;38.65;;;25.42;;
60722;SDS011;46574;52.818;6.516;2022-10-15T03:36:39;44.80;;;28.23;;
60722;SDS011;46574;52.818;6.516;2022-10-15T03:39:05;44.88;;;28.60;;
60722;SDS011;46574;52.818;6.516;2022-10-15T03:41:32;47.88;;;31.70;;
60722;SDS011;46574;52.818;6.516;2022-10-15T03:44:01;36.58;;;25.30;;
60722;SDS011;46574;52.818;6.516;2022-10-15T03:46:28;54.58;;;32.67;;
60722;SDS011;46574;52.818;6.516;2022-10-15T03:48:54;48.65;;;31.02;;
60722;SDS011;46574;52.818;6.516;2022-10-15T03:51:19;48.35;;;31.60;;
60722;SDS011;46574;52.818;6.516;2022-10-15T03:53:45;44.75;;;31.10;;
60722;SDS011;46574;52.818;6.516;2022-10-15T03:56:11;49.45;;;30.63;;
60722;SDS011;46574;52.818;6.516;2022-10-15T03:58:36;55.08;;;33.10;;
60722;SDS011;46574;52.818;6.516;2022-10-15T04:01:07;39.95;;;27.67;;
60722;SDS011;46574;52.818;6.516;2022-10-15T04:03:34;46.38;;;31.92;;
60722;SDS011;46574;52.818;6.516;2022-10-15T04:05:59;47.90;;;30.30;;
60722;SDS011;46574;52.818;6.516;2022-10-15T04:08:25;43.03;;;28.88;;
60722;SDS011;46574;52.818;6.516;2022-10-15T04:10:51;48.20;;;31.90;;
60722;SDS011;46574;52.818;6.516;2022-10-15T04:13:16;47.80;;;31.23;;
60722;SDS011;46574;52.818;6.516;2022-10-15T04:15:42;51.50;;;32.83;;
60722;SDS011;46574;52.818;6.516;2022-10-15T04:18:08;48.38;;;30.80;;
60722;SDS011;46574;52.818;6.516;2022-10-15T04:20:34;52.50;;;33.28;;
60722;SDS011;46574;52.818;6.516;2022-10-15T04:22:59;54.78;;;34.75;;
60722;SDS011;46574;52.818;6.516;2022-10-15T04:25:25;58.13;;;35.78;;
60722;SDS011;46574;52.818;6.516;2022-10-15T04:27:50;50.08;;;33.33;;
60722;SDS011;46574;52.818;6.516;2022-10-15T04:30:17;52.50;;;33.55;;
60722;SDS011;46574;52.818;6.516;2022-10-15T04:32:43;58.28;;;36.28;;
60722;SDS011;46574;52.818;6.516;2022-10-15T04:35:08;56.63;;;35.90;;
60722;SDS011;46574;52.818;6.516;2022-10-15T04:37:35;54.42;;;32.95;;
60722;SDS011;46574;52.818;6.516;2022-10-15T04:40:01;50.72;;;33.13;;
60722;SDS011;46574;52.818;6.516;2022-10-15T04:42:28;46.27;;;30.70;;
60722;SDS011;46574;52.818;6.516;2022-10-15T04:44:55;61.85;;;36.58;;
60722;SDS011;46574;52.818;6.516;2022-10-15T04:47:20;62.40;;;38.33;;
60722;SDS011;46574;52.818;6.516;2022-10-15T04:49:46;60.10;;;36.75;;
60722;SDS011;46574;52.818;6.516;2022-10-15T04:52:12;52.78;;;32.83;;
60722;SDS011;46574;52.818;6.516;2022-10-15T04:54:38;55.65;;;33.88;;
60722;SDS011;46574;52.818;6.516;2022-10-15T04:57:03;57.80;;;35.35;;
60722;SDS011;46574;52.818;6.516;2022-10-15T04:59:30;54.25;;;34.70;;
60722;SDS011;46574;52.818;6.516;2022-10-15T05:01:55;63.03;;;38.15;;
60722;SDS011;46574;52.818;6.516;2022-10-15T05:04:21;54.05;;;34.22;;
60722;SDS011;46574;52.818;6.516;2022-10-15T05:06:47;63.75;;;38.15;;
60722;SDS011;46574;52.818;6.516;2022-10-15T05:09:12;57.67;;;36.58;;
60722;SDS011;46574;52.818;6.516;2022-10-15T05:11:38;57.90;;;35.38;;
60722;SDS011;46574;52.818;6.516;2022-10-15T05:14:04;66.45;;;38.95;;
60722;SDS011;46574;52.818;6.516;2022-10-15T05:16:30;49.95;;;32.30;;
60722;SDS011;46574;52.818;6.516;2022-10-15T05:18:58;64.50;;;38.33;;
60722;SDS011;46574;52.818;6.516;2022-10-15T05:21:25;56.13;;;33.45;;
60722;SDS011;46574;52.818;6.516;2022-10-15T05:23:51;60.10;;;37.35;;
60722;SDS011;46574;52.818;6.516;2022-10-15T05:26:18;57.78;;;34.47;;
60722;SDS011;46574;52.818;6.516;2022-10-15T05:28:48;58.53;;;38.20;;
60722;SDS011;46574;52.818;6.516;2022-10-15T05:31:16;55.95;;;34.90;;
60722;SDS011;46574;52.818;6.516;2022-10-15T05:33:48;63.35;;;37.85;;
60722;SDS011;46574;52.818;6.516;2022-10-15T05:36:19;72.70;;;41.58;;
60722;SDS011;46574;52.818;6.516;2022-10-15T05:38:53;63.95;;;38.78;;
60722;SDS011;46574;52.818;6.516;2022-10-15T05:41:31;64.97;;;39.67;;
60722;SDS011;46574;52.818;6.516;2022-10-15T05:43:57;68.13;;;38.28;;
60722;SDS011;46574;52.818;6.516;2022-10-15T05:46:23;73.65;;;41.60;;
60722;SDS011;46574;52.818;6.516;2022-10-15T05:48:50;67.43;;;40.40;;
60722;SDS011;46574;52.818;6.516;2022-10-15T05:51:20;71.82;;;41.88;;
60722;SDS011;46574;52.818;6.516;2022-10-15T05:53:50;68.50;;;40.70;;
60722;SDS011;46574;52.818;6.516;2022-10-15T05:56:16;72.72;;;40.72;;
60722;SDS011;46574;52.818;6.516;2022-10-15T05:58:42;75.07;;;43.17;;
60722;SDS011;46574;52.818;6.516;2022-10-15T06:01:08;70.28;;;42.70;;
60722;SDS011;46574;52.818;6.516;2022-10-15T06:03:36;75.47;;;41.55;;
60722;SDS011;46574;52.818;6.516;2022-10-15T06:06:03;67.70;;;42.33;;
60722;SDS011;46574;52.818;6.516;2022-10-15T06:08:29;58.30;;;37.17;;
60722;SDS011;46574;52.818;6.516;2022-10-15T06:11:00;69.30;;;40.95;;
60722;SDS011;46574;52.818;6.516;2022-10-15T06:13:29;70.22;;;43.20;;
60722;SDS011;46574;52.818;6.516;2022-10-15T06:15:54;73.55;;;41.25;;
60722;SDS011;46574;52.818;6.516;2022-10-15T06:18:20;71.03;;;42.33;;
60722;SDS011;46574;52.818;6.516;2022-10-15T06:20:49;65.57;;;39.53;;
60722;SDS011;46574;52.818;6.516;2022-10-15T06:23:16;66.43;;;40.20;;
60722;SDS011;46574;52.818;6.516;2022-10-15T06:25:43;69.25;;;40.47;;
60722;SDS011;46574;52.818;6.516;2022-10-15T06:28:09;64.65;;;38.20;;
60722;SDS011;46574;52.818;6.516;2022-10-15T06:30:35;67.60;;;40.72;;
60722;SDS011;46574;52.818;6.516;2022-10-15T06:33:00;66.15;;;41.65;;
60722;SDS011;46574;52.818;6.516;2022-10-15T06:35:26;68.07;;;41.50;;
60722;SDS011;46574;52.818;6.516;2022-10-15T06:37:54;68.28;;;40.83;;
60722;SDS011;46574;52.818;6.516;2022-10-15T06:40:20;62.60;;;37.58;;
60722;SDS011;46574;52.818;6.516;2022-10-15T06:42:45;58.85;;;34.78;;
60722;SDS011;46574;52.818;6.516;2022-10-15T06:45:11;56.05;;;35.95;;
60722;SDS011;46574;52.818;6.516;2022-10-15T06:47:39;62.95;;;38.17;;
60722;SDS011;46574;52.818;6.516;2022-10-15T06:50:05;71.32;;;41.35;;
60722;SDS011;46574;52.818;6.516;2022-10-15T06:52:32;57.80;;;35.78;;
60722;SDS011;46574;52.818;6.516;2022-10-15T06:54:58;67.50;;;39.55;;
60722;SDS011;46574;52.818;6.516;2022-10-15T06:57:25;65.50;;;38.25;;
60722;SDS011;46574;52.818;6.516;2022-10-15T06:59:52;70.95;;;42.90;;
60722;SDS011;46574;52.818;6.516;2022-10-15T07:02:17;60.53;;;40.97;;
60722;SDS011;46574;52.818;6.516;2022-10-15T07:04:47;70.95;;;41.95;;
60722;SDS011;46574;52.818;6.516;2022-10-15T07:07:13;67.22;;;41.90;;
60722;SDS011;46574;52.818;6.516;2022-10-15T07:09:39;67.97;;;41.92;;
60722;SDS011;46574;52.818;6.516;2022-10-15T07:12:05;69.63;;;40.97;;
60722;SDS011;46574;52.818;6.516;2022-10-15T07:14:31;57.55;;;37.47;;
60722;SDS011;46574;52.818;6.516;2022-10-15T07:16:57;62.03;;;39.25;;
60722;SDS011;46574;52.818;6.516;2022-10-15T07:19:23;65.97;;;40.67;;
60722;SDS011;46574;52.818;6.516;2022-10-15T07:21:48;71.85;;;42.58;;
60722;SDS011;46574;52.818;6.516;2022-10-15T07:24:14;69.72;;;42.50;;
60722;SDS011;46574;52.818;6.516;2022-10-15T07:26:40;63.35;;;39.55;;
60722;SDS011;46574;52.818;6.516;2022-10-15T07:29:05;71.53;;;42.90;;
60722;SDS011;46574;52.818;6.516;2022-10-15T07:31:31;64.18;;;39.35;;
60722;SDS011;46574;52.818;6.516;2022-10-15T07:33:57;61.00;;;39.75;;
60722;SDS011;46574;52.818;6.516;2022-10-15T07:36:23;62.38;;;39.40;;
60722;SDS011;46574;52.818;6.516;2022-10-15T07:38:50;68.30;;;41.40;;
60722;SDS011;46574;52.818;6.516;2022-10-15T07:41:15;61.30;;;38.45;;
60722;SDS011;46574;52.818;6.516;2022-10-15T07:43:41;65.28;;;40.25;;
60722;SDS011;46574;52.818;6.516;2022-10-15T07:46:07;60.08;;;38.35;;
60722;SDS011;46574;52.818;6.516;2022-10-15T07:48:33;63.53;;;39.72;;
60722;SDS011;46574;52.818;6.516;2022-10-15T07:50:59;67.40;;;41.38;;
60722;SDS011;46574;52.818;6.516;2022-10-15T07:53:28;63.63;;;38.80;;
60722;SDS011;46574;52.818;6.516;2022-10-15T07:56:01;55.90;;;35.90;;
60722;SDS011;46574;52.818;6.516;2022-10-15T07:58:30;71.45;;;40.92;;
60722;SDS011;46574;52.818;6.516;2022-10-15T08:00:59;68.65;;;40.97;;
60722;SDS011;46574;52.818;6.516;2022-10-15T08:03:26;55.08;;;36.97;;
60722;SDS011;46574;52.818;6.516;2022-10-15T08:05:52;64.28;;;42.08;;
60722;SDS011;46574;52.818;6.516;2022-10-15T08:08:19;56.90;;;36.78;;
60722;SDS011;46574;52.818;6.516;2022-10-15T08:10:46;60.83;;;37.70;;
60722;SDS011;46574;52.818;6.516;2022-10-15T08:13:12;65.70;;;41.05;;
60722;SDS011;46574;52.818;6.516;2022-10-15T08:15:41;60.42;;;40.55;;
60722;SDS011;46574;52.818;6.516;2022-10-15T08:18:07;63.55;;;41.83;;
60722;SDS011;46574;52.818;6.516;2022-10-15T08:20:34;58.13;;;38.50;;
60722;SDS011;46574;52.818;6.516;2022-10-15T08:23:03;56.67;;;39.33;;
60722;SDS011;46574;52.818;6.516;2022-10-15T08:25:31;61.05;;;41.03;;
60722;SDS011;46574;52.818;6.516;2022-10-15T08:27:57;61.95;;;39.42;;
60722;SDS011;46574;52.818;6.516;2022-10-15T08:30:23;58.72;;;38.28;;
60722;SDS011;46574;52.818;6.516;2022-10-15T08:32:48;58.78;;;39.63;;
60722;SDS011;46574;52.818;6.516;2022-10-15T08:35:14;60.70;;;39.55;;
60722;SDS011;46574;52.818;6.516;2022-10-15T08:37:40;57.60;;;39.05;;
60722;SDS011;46574;52.818;6.516;2022-10-15T08:40:06;59.05;;;39.08;;
60722;SDS011;46574;52.818;6.516;2022-10-15T08:42:36;62.00;;;39.47;;
60722;SDS011;46574;52.818;6.516;2022-10-15T08:45:05;55.95;;;36.40;;
60722;SDS011;46574;52.818;6.516;2022-10-15T08:47:46;62.42;;;42.30;;
60722;SDS011;46574;52.818;6.516;2022-10-15T08:50:27;62.17;;;40.78;;
60722;SDS011;46574;52.818;6.516;2022-10-15T08:53:10;60.63;;;39.20;;
60722;SDS011;46574;52.818;6.516;2022-10-15T08:55:38;60.20;;;39.00;;
60722;SDS011;46574;52.818;6.516;2022-10-15T08:58:15;60.42;;;39.50;;
60722;SDS011;46574;52.818;6.516;2022-10-15T09:03:25;62.75;;;36.28;;
60722;SDS011;46574;52.818;6.516;2022-10-15T09:11:35;53.75;;;32.17;;
60722;SDS011;46574;52.818;6.516;2022-10-15T09:14:13;54.47;;;31.60;;
60722;SDS011;46574;52.818;6.516;2022-10-15T09:16:42;49.60;;;31.20;;
60722;SDS011;46574;52.818;6.516;2022-10-15T09:19:13;55.00;;;30.73;;
60722;SDS011;46574;52.818;6.516;2022-10-15T09:21:42;56.15;;;31.70;;
60722;SDS011;46574;52.818;6.516;2022-10-15T09:24:09;55.42;;;31.88;;
60722;SDS011;46574;52.818;6.516;2022-10-15T09:32:18;53.38;;;31.33;;
60722;SDS011;46574;52.818;6.516;2022-10-15T09:38:05;45.83;;;28.20;;
60722;SDS011;46574;52.818;6.516;2022-10-15T09:43:20;40.65;;;26.58;;
60722;SDS011;46574;52.818;6.516;2022-10-15T09:45:56;41.25;;;25.67;;
60722;SDS011;46574;52.818;6.516;2022-10-15T09:48:22;38.85;;;22.88;;
60722;SDS011;46574;52.818;6.516;2022-10-15T09:56:23;39.80;;;24.88;;
60722;SDS011;46574;52.818;6.516;2022-10-15T09:58:57;38.05;;;23.50;;
60722;SDS011;46574;52.818;6.516;2022-10-15T10:01:27;38.83;;;23.63;;
60722;SDS011;46574;52.818;6.516;2022-10-15T10:04:11;39.38;;;24.75;;
60722;SDS011;46574;52.818;6.516;2022-10-15T10:06:42;34.30;;;22.95;;
60722;SDS011;46574;52.818;6.516;2022-10-15T10:09:15;40.05;;;25.52;;
60722;SDS011;46574;52.818;6.516;2022-10-15T10:11:49;38.33;;;25.38;;
60722;SDS011;46574;52.818;6.516;2022-10-15T10:14:24;38.95;;;24.75;;
60722;SDS011;46574;52.818;6.516;2022-10-15T10:17:03;38.50;;;24.92;;
60722;SDS011;46574;52.818;6.516;2022-10-15T10:19:39;40.65;;;25.42;;
60722;SDS011;46574;52.818;6.516;2022-10-15T10:22:06;36.97;;;23.88;;
60722;SDS011;46574;52.818;6.516;2022-10-15T10:24:41;34.20;;;22.42;;
60722;SDS011;46574;52.818;6.516;2022-10-15T10:29:54;36.72;;;23.65;;
60722;SDS011;46574;52.818;6.516;2022-10-15T10:32:26;36.47;;;22.52;;
60722;SDS011;46574;52.818;6.516;2022-10-15T10:34:54;35.92;;;22.80;;
60722;SDS011;46574;52.818;6.516;2022-10-15T10:37:20;37.40;;;23.75;;
60722;SDS011;46574;52.818;6.516;2022-10-15T10:39:56;32.63;;;22.23;;
60722;SDS011;46574;52.818;6.516;2022-10-15T10:42:31;36.20;;;22.30;;
60722;SDS011;46574;52.818;6.516;2022-10-15T10:45:15;34.55;;;22.35;;
60722;SDS011;46574;52.818;6.516;2022-10-15T10:47:44;33.42;;;22.65;;
60722;SDS011;46574;52.818;6.516;2022-10-15T10:50:24;31.15;;;21.67;;
60722;SDS011;46574;52.818;6.516;2022-10-15T10:52:56;31.55;;;21.67;;
60722;SDS011;46574;52.818;6.516;2022-10-15T10:55:24;32.28;;;20.73;;
60722;SDS011;46574;52.818;6.516;2022-10-15T10:58:01;30.77;;;20.25;;
60722;SDS011;46574;52.818;6.516;2022-10-15T11:00:38;28.08;;;19.95;;
60722;SDS011;46574;52.818;6.516;2022-10-15T11:03:49;27.98;;;19.60;;
60722;SDS011;46574;52.818;6.516;2022-10-15T11:08:42;28.13;;;19.73;;
60722;SDS011;46574;52.818;6.516;2022-10-15T11:13:49;24.00;;;18.42;;
60722;SDS011;46574;52.818;6.516;2022-10-15T11:16:37;27.23;;;18.67;;
60722;SDS011;46574;52.818;6.516;2022-10-15T11:19:11;25.38;;;18.25;;
60722;SDS011;46574;52.818;6.516;2022-10-15T11:24:25;26.63;;;19.45;;
60722;SDS011;46574;52.818;6.516;2022-10-15T11:27:14;25.63;;;18.58;;
60722;SDS011;46574;52.818;6.516;2022-10-15T11:30:18;24.75;;;18.48;;
60722;SDS011;46574;52.818;6.516;2022-10-15T11:32:51;23.52;;;18.30;;
60722;SDS011;46574;52.818;6.516;2022-10-15T11:46:39;25.58;;;19.27;;
60722;SDS011;46574;52.818;6.516;2022-10-15T11:49:21;25.15;;;19.27;;
60722;SDS011;46574;52.818;6.516;2022-10-15T11:54:58;24.05;;;18.42;;
60722;SDS011;46574;52.818;6.516;2022-10-15T11:57:35;24.40;;;18.95;;
60722;SDS011;46574;52.818;6.516;2022-10-15T12:02:59;27.33;;;19.15;;
60722;SDS011;46574;52.818;6.516;2022-10-15T12:05:38;26.95;;;18.73;;
60722;SDS011;46574;52.818;6.516;2022-10-15T12:08:12;27.88;;;19.30;;
60722;SDS011;46574;52.818;6.516;2022-10-15T12:16:27;23.73;;;17.95;;
60722;SDS011;46574;52.818;6.516;2022-10-15T12:19:11;27.77;;;19.35;;
60722;SDS011;46574;52.818;6.516;2022-10-15T12:29:43;26.58;;;18.58;;
60722;SDS011;46574;52.818;6.516;2022-10-15T12:32:39;26.50;;;18.95;;
60722;SDS011;46574;52.818;6.516;2022-10-15T12:37:38;25.98;;;18.50;;
60722;SDS011;46574;52.818;6.516;2022-10-15T12:40:23;25.45;;;19.13;;
60722;SDS011;46574;52.818;6.516;2022-10-15T12:42:52;22.95;;;17.73;;
60722;SDS011;46574;52.818;6.516;2022-10-15T12:45:37;21.98;;;16.50;;
60722;SDS011;46574;52.818;6.516;2022-10-15T12:50:34;25.85;;;18.70;;
60722;SDS011;46574;52.818;6.516;2022-10-15T12:56:12;28.60;;;20.75;;
60722;SDS011;46574;52.818;6.516;2022-10-15T12:58:47;25.52;;;18.17;;
60722;SDS011;46574;52.818;6.516;2022-10-15T13:08:45;23.23;;;16.67;;
60722;SDS011;46574;52.818;6.516;2022-10-15T13:11:19;28.25;;;17.92;;
60722;SDS011;46574;52.818;6.516;2022-10-15T13:13:48;23.48;;;17.65;;
60722;SDS011;46574;52.818;6.516;2022-10-15T13:16:16;26.48;;;18.83;;
60722;SDS011;46574;52.818;6.516;2022-10-15T13:18:42;20.75;;;16.38;;
60722;SDS011;46574;52.818;6.516;2022-10-15T13:21:14;20.88;;;15.93;;
60722;SDS011;46574;52.818;6.516;2022-10-15T13:23:43;22.63;;;16.00;;
60722;SDS011;46574;52.818;6.516;2022-10-15T13:26:12;23.23;;;17.17;;
60722;SDS011;46574;52.818;6.516;2022-10-15T13:28:43;21.23;;;14.65;;
60722;SDS011;46574;52.818;6.516;2022-10-15T13:31:23;18.92;;;14.43;;
60722;SDS011;46574;52.818;6.516;2022-10-15T13:33:54;17.15;;;12.40;;
60722;SDS011;46574;52.818;6.516;2022-10-15T13:36:23;20.27;;;14.32;;
60722;SDS011;46574;52.818;6.516;2022-10-15T13:38:53;18.90;;;14.48;;
60722;SDS011;46574;52.818;6.516;2022-10-15T13:41:24;19.52;;;13.73;;
60722;SDS011;46574;52.818;6.516;2022-10-15T13:43:52;19.38;;;14.77;;
60722;SDS011;46574;52.818;6.516;2022-10-15T13:46:23;16.83;;;12.40;;
60722;SDS011;46574;52.818;6.516;2022-10-15T13:48:52;19.10;;;12.27;;
60722;SDS011;46574;52.818;6.516;2022-10-15T13:51:32;17.17;;;12.50;;
60722;SDS011;46574;52.818;6.516;2022-10-15T13:54:30;14.43;;;10.70;;
60722;SDS011;46574;52.818;6.516;2022-10-15T13:56:56;14.15;;;11.02;;
60722;SDS011;46574;52.818;6.516;2022-10-15T13:59:26;15.45;;;11.75;;
60722;SDS011;46574;52.818;6.516;2022-10-15T14:04:25;13.77;;;11.30;;
60722;SDS011;46574;52.818;6.516;2022-10-15T14:06:58;15.55;;;11.77;;
60722;SDS011;46574;52.818;6.516;2022-10-15T14:09:30;14.63;;;9.85;;
60722;SDS011;46574;52.818;6.516;2022-10-15T14:11:58;13.52;;;10.57;;
60722;SDS011;46574;52.818;6.516;2022-10-15T14:14:28;13.18;;;10.30;;
60722;SDS011;46574;52.818;6.516;2022-10-15T14:17:00;9.68;;;8.35;;
60722;SDS011;46574;52.818;6.516;2022-10-15T14:19:29;10.82;;;8.13;;
60722;SDS011;46574;52.818;6.516;2022-10-15T14:21:56;11.02;;;7.72;;
60722;SDS011;46574;52.818;6.516;2022-10-15T14:24:31;10.07;;;8.43;;
60722;SDS011;46574;52.818;6.516;2022-10-15T14:27:04;11.75;;;8.65;;
60722;SDS011;46574;52.818;6.516;2022-10-15T14:29:37;8.85;;;7.10;;
60722;SDS011;46574;52.818;6.516;2022-10-15T14:32:18;9.73;;;7.68;;
60722;SDS011;46574;52.818;6.516;2022-10-15T14:34:56;7.77;;;6.97;;
60722;SDS011;46574;52.818;6.516;2022-10-15T14:37:30;7.70;;;6.80;;
60722;SDS011;46574;52.818;6.516;2022-10-15T14:40:23;10.18;;;8.15;;
60722;SDS011;46574;52.818;6.516;2022-10-15T14:42:48;9.95;;;7.97;;
60722;SDS011;46574;52.818;6.516;2022-10-15T14:45:28;9.82;;;7.90;;
60722;SDS011;46574;52.818;6.516;2022-10-15T14:48:00;7.80;;;6.68;;
60722;SDS011;46574;52.818;6.516;2022-10-15T14:50:34;7.97;;;6.88;;
60722;SDS011;46574;52.818;6.516;2022-10-15T14:53:05;8.23;;;7.32;;
60722;SDS011;46574;52.818;6.516;2022-10-15T14:55:33;9.38;;;7.75;;
60722;SDS011;46574;52.818;6.516;2022-10-15T14:58:08;9.70;;;8.20;;
60722;SDS011;46574;52.818;6.516;2022-10-15T15:00:45;8.85;;;7.75;;
60722;SDS011;46574;52.818;6.516;2022-10-15T15:03:14;8.35;;;7.25;;
60722;SDS011;46574;52.818;6.516;2022-10-15T15:05:49;9.40;;;7.65;;
60722;SDS011;46574;52.818;6.516;2022-10-15T15:08:17;7.15;;;6.45;;
60722;SDS011;46574;52.818;6.516;2022-10-15T15:10:42;8.60;;;7.00;;
60722;SDS011;46574;52.818;6.516;2022-10-15T15:13:13;7.22;;;6.53;;
60722;SDS011;46574;52.818;6.516;2022-10-15T15:15:45;6.90;;;5.93;;
60722;SDS011;46574;52.818;6.516;2022-10-15T15:18:10;7.25;;;6.45;;
60722;SDS011;46574;52.818;6.516;2022-10-15T15:20:37;6.55;;;5.80;;
60722;SDS011;46574;52.818;6.516;2022-10-15T15:23:04;7.78;;;5.80;;
60722;SDS011;46574;52.818;6.516;2022-10-15T15:25:31;7.95;;;6.18;;
60722;SDS011;46574;52.818;6.516;2022-10-15T15:28:00;8.73;;;7.28;;
60722;SDS011;46574;52.818;6.516;2022-10-15T15:30:27;6.85;;;6.03;;
60722;SDS011;46574;52.818;6.516;2022-10-15T15:32:54;7.53;;;6.32;;
60722;SDS011;46574;52.818;6.516;2022-10-15T15:35:24;6.72;;;6.03;;
60722;SDS011;46574;52.818;6.516;2022-10-15T15:37:54;7.30;;;6.57;;
60722;SDS011;46574;52.818;6.516;2022-10-15T15:40:20;7.13;;;6.43;;
60722;SDS011;46574;52.818;6.516;2022-10-15T15:42:46;7.20;;;6.50;;
60722;SDS011;46574;52.818;6.516;2022-10-15T15:45:22;7.75;;;6.28;;
60722;SDS011;46574;52.818;6.516;2022-10-15T15:47:49;5.95;;;5.35;;
60722;SDS011;46574;52.818;6.516;2022-10-15T15:50:15;7.50;;;6.70;;
60722;SDS011;46574;52.818;6.516;2022-10-15T15:52:41;7.93;;;6.00;;
60722;SDS011;46574;52.818;6.516;2022-10-15T15:55:07;6.63;;;5.80;;
60722;SDS011;46574;52.818;6.516;2022-10-15T15:57:33;5.88;;;5.20;;
60722;SDS011;46574;52.818;6.516;2022-10-15T15:59:59;6.95;;;5.82;;
60722;SDS011;46574;52.818;6.516;2022-10-15T16:02:24;7.65;;;5.60;;
60722;SDS011;46574;52.818;6.516;2022-10-15T16:04:50;6.57;;;5.38;;
60722;SDS011;46574;52.818;6.516;2022-10-15T16:07:16;6.68;;;5.40;;
60722;SDS011;46574;52.818;6.516;2022-10-15T16:09:41;5.75;;;5.20;;
60722;SDS011;46574;52.818;6.516;2022-10-15T16:12:08;6.45;;;5.80;;
60722;SDS011;46574;52.818;6.516;2022-10-15T16:14:34;6.00;;;5.40;;
60722;SDS011;46574;52.818;6.516;2022-10-15T16:16:59;5.93;;;5.25;;
60722;SDS011;46574;52.818;6.516;2022-10-15T16:19:25;6.03;;;5.20;;
60722;SDS011;46574;52.818;6.516;2022-10-15T16:21:51;6.28;;;5.68;;
60722;SDS011;46574;52.818;6.516;2022-10-15T16:24:16;6.47;;;5.82;;
60722;SDS011;46574;52.818;6.516;2022-10-15T16:26:42;6.90;;;5.55;;
60722;SDS011;46574;52.818;6.516;2022-10-15T16:29:08;6.68;;;6.00;;
60722;SDS011;46574;52.818;6.516;2022-10-15T16:31:33;6.10;;;5.50;;